Times Square, Washington
Current Conditions -  °F | °C
As of 10:53 PM on Thursday 27 Nov 2014 (Local Time) from KBFI Reporting Station
Light Rain Light Rain  
Wind Chill: 58°   Ceiling: 2000
Heat Index: 58°   Visibility: 10mi
Dew Point: 49°   Wind: 13mph
Humidity: 72%   Direction: 180°S
Pressure: 29.71"   Gusts: 22mph
Location:  47.6115°N, 122.334°W
Report Text: KBFI 280653Z 18011G19KT 10SM -RA BKN020 OVC026 14/09 A2971 RMK AO2 RAB49 SLP060 P0000 T01440094
Loading
Personal Weather Stations






























Interactive Weather Map New forecast layout! Learn more

10-Day Weather Forecast

Advertisements
Track Severe Weather on mobile